KBIE/BIE METAR and TAF weather

Enter ICAO airport designator
Station Type Date Time Source
KBIE METAR 2019/10/21 22:15 UTC NOAA

KBIE 212215Z AUTO 29018G33KT 10SM OVC034 11/04 A2966 RMK AO2 T01070040


Station Type Date Time Source
KBIE Decoded METAR 2019/10/21 22:15 UTC NOAA

Beatrice Municipal, NE, United States (KBIE) 40-18N 096-45W
Oct 21, 2019 - 06:15 PM EDT / 2019.10.21 2215 UTC
Wind: from the WNW (290 degrees) at 21 MPH (18 KT) gusting to 38 MPH (33 KT):0
Visibility: 10 mile(s):0
Sky conditions: overcast
Temperature: 51.3 F (10.7 C)
Dew Point: 39.2 F (4.0 C)
Relative Humidity: 63%
Pressure (altimeter): 29.66 in. Hg (1004 hPa)
ob: KBIE 212215Z AUTO 29018G33KT 10SM OVC034 11/04 A2966 RMK AO2 T01070040
cycle: 22

Station Type Date Time Source
KBIE TAF UTC NOAA

Error!

Example: see airport list